首页
METAR-TAF:

METAR-TAF

机场 :

吉布地, 吉布提

吉布提-安布利国际机场

纬度: 11-33N, 经度: 043-10E, 海拔: 49米

当前天气观测

该预报发布于1小时和29分钟前的13:00 UTC
风速10节,风向
温度 29°C
湿度 55%
气压 1014 hPa
能见度10公里或以上
少量云层高于2000英尺

METAR: HDAM 221300Z 09010KT 9999 FEW020 29/19 Q1014

时间: 17:29 (14:29 UTC)

预报

该预报发布于8小时和59分钟前的05:30 UTC
预报有效从22日的 06点(UTC)到 23日的 06点(UTC)
风速10节,风向
能见度10公里或以上
散云层高于2000英尺
散云层高于3000英尺
成为
从 22日的 15点(UTC)到 22日的 21点(UTC)
风速3节,风向多变
少量云层高于2000英尺
成为
从 23日的 00点(UTC)到 23日的 06点(UTC)
风速节,风向
散云层高于2000英尺

TAF: HDAM 220530Z 2206/2306 08010KT 9999 SCT020 SCT030 BECMG 2215/2221 VRB03KT FEW020 BECMG 2300/2306 00000KT SCT020

超过4000个机场的气象观测和天气预报(METAR&TAF报告)。

可查询的气象台以黄色和红色小点在地图上表示。

将鼠标移到小点上方,可查看气象台名称。

然后点击查看天气观测和预报。

如需切换地图:点击带黑十字的绿色按钮放大地图;点击带横线的绿色按钮缩小地图;或者点击绿色箭头查看邻近地区的地图。


METAR-TAF: